sensor_id;sensor_type;location;lat;lon;timestamp;temperature;humidity
15262;DHT22;7733;51.554;13.590;2023-04-06T00:02:08;2.20;99.90
15262;DHT22;7733;51.554;13.590;2023-04-06T00:04:33;2.10;99.90
15262;DHT22;7733;51.554;13.590;2023-04-06T00:06:59;1.90;99.90
15262;DHT22;7733;51.554;13.590;2023-04-06T00:09:25;1.80;99.90
15262;DHT22;7733;51.554;13.590;2023-04-06T00:11:51;1.70;99.90
15262;DHT22;7733;51.554;13.590;2023-04-06T00:14:16;1.80;99.90
15262;DHT22;7733;51.554;13.590;2023-04-06T00:16:42;1.80;99.90
15262;DHT22;7733;51.554;13.590;2023-04-06T00:19:08;1.80;99.90
15262;DHT22;7733;51.554;13.590;2023-04-06T00:21:34;1.80;99.90
15262;DHT22;7733;51.554;13.590;2023-04-06T00:24:00;1.70;99.90
15262;DHT22;7733;51.554;13.590;2023-04-06T00:26:26;1.60;99.90
15262;DHT22;7733;51.554;13.590;2023-04-06T00:28:51;1.30;99.90
15262;DHT22;7733;51.554;13.590;2023-04-06T00:31:18;1.10;99.90
15262;DHT22;7733;51.554;13.590;2023-04-06T00:33:43;1.10;99.90
15262;DHT22;7733;51.554;13.590;2023-04-06T00:36:09;1.30;99.90
15262;DHT22;7733;51.554;13.590;2023-04-06T00:38:35;1.40;99.90
15262;DHT22;7733;51.554;13.590;2023-04-06T00:41:03;1.40;99.90
15262;DHT22;7733;51.554;13.590;2023-04-06T00:43:29;1.50;99.90
15262;DHT22;7733;51.554;13.590;2023-04-06T00:45:55;1.10;99.90
15262;DHT22;7733;51.554;13.590;2023-04-06T00:48:21;1.20;99.90
15262;DHT22;7733;51.554;13.590;2023-04-06T00:50:46;1.00;99.90
15262;DHT22;7733;51.554;13.590;2023-04-06T00:53:12;1.20;99.90
15262;DHT22;7733;51.554;13.590;2023-04-06T00:55:38;1.30;99.90
15262;DHT22;7733;51.554;13.590;2023-04-06T00:58:04;1.30;99.90
15262;DHT22;7733;51.554;13.590;2023-04-06T01:00:31;1.30;99.90
15262;DHT22;7733;51.554;13.590;2023-04-06T01:02:58;1.40;99.90
15262;DHT22;7733;51.554;13.590;2023-04-06T01:05:23;1.40;99.90
15262;DHT22;7733;51.554;13.590;2023-04-06T01:07:49;1.30;99.90
15262;DHT22;7733;51.554;13.590;2023-04-06T01:10:28;1.30;99.90
15262;DHT22;7733;51.554;13.590;2023-04-06T01:12:54;0.90;99.90
15262;DHT22;7733;51.554;13.590;2023-04-06T01:15:20;1.10;99.90
15262;DHT22;7733;51.554;13.590;2023-04-06T01:17:47;1.00;99.90
15262;DHT22;7733;51.554;13.590;2023-04-06T01:20:13;1.10;99.90
15262;DHT22;7733;51.554;13.590;2023-04-06T01:22:39;1.00;99.90
15262;DHT22;7733;51.554;13.590;2023-04-06T01:25:05;1.10;99.90
15262;DHT22;7733;51.554;13.590;2023-04-06T01:27:32;1.10;99.90
15262;DHT22;7733;51.554;13.590;2023-04-06T01:29:58;1.00;99.90
15262;DHT22;7733;51.554;13.590;2023-04-06T01:32:24;0.80;99.90
15262;DHT22;7733;51.554;13.590;2023-04-06T01:34:50;0.60;99.90
15262;DHT22;7733;51.554;13.590;2023-04-06T01:37:16;0.70;99.90
15262;DHT22;7733;51.554;13.590;2023-04-06T01:39:43;0.80;99.90
15262;DHT22;7733;51.554;13.590;2023-04-06T01:42:09;0.80;99.90
15262;DHT22;7733;51.554;13.590;2023-04-06T01:44:35;0.80;99.90
15262;DHT22;7733;51.554;13.590;2023-04-06T01:47:02;0.90;99.90
15262;DHT22;7733;51.554;13.590;2023-04-06T01:49:28;0.90;99.90
15262;DHT22;7733;51.554;13.590;2023-04-06T01:51:54;0.90;99.90
15262;DHT22;7733;51.554;13.590;2023-04-06T01:54:19;0.90;99.90
15262;DHT22;7733;51.554;13.590;2023-04-06T01:56:45;0.90;99.90
15262;DHT22;7733;51.554;13.590;2023-04-06T01:59:11;0.90;99.90
15262;DHT22;7733;51.554;13.590;2023-04-06T02:01:37;0.80;99.90
15262;DHT22;7733;51.554;13.590;2023-04-06T02:04:02;0.80;99.90
15262;DHT22;7733;51.554;13.590;2023-04-06T02:06:28;0.90;99.90
15262;DHT22;7733;51.554;13.590;2023-04-06T02:08:54;0.90;99.90
15262;DHT22;7733;51.554;13.590;2023-04-06T02:11:20;0.70;99.90
15262;DHT22;7733;51.554;13.590;2023-04-06T02:13:45;0.70;99.90
15262;DHT22;7733;51.554;13.590;2023-04-06T02:16:11;0.80;99.90
15262;DHT22;7733;51.554;13.590;2023-04-06T02:18:37;0.80;99.90
15262;DHT22;7733;51.554;13.590;2023-04-06T02:21:03;0.80;99.90
15262;DHT22;7733;51.554;13.590;2023-04-06T02:23:28;0.80;99.90
15262;DHT22;7733;51.554;13.590;2023-04-06T02:25:54;0.70;99.90
15262;DHT22;7733;51.554;13.590;2023-04-06T02:28:20;0.70;99.90
15262;DHT22;7733;51.554;13.590;2023-04-06T02:30:46;0.80;99.90
15262;DHT22;7733;51.554;13.590;2023-04-06T02:33:11;0.70;99.90
15262;DHT22;7733;51.554;13.590;2023-04-06T02:35:37;0.50;99.90
15262;DHT22;7733;51.554;13.590;2023-04-06T02:38:03;0.50;99.90
15262;DHT22;7733;51.554;13.590;2023-04-06T02:40:29;0.40;99.90
15262;DHT22;7733;51.554;13.590;2023-04-06T02:42:54;0.50;99.90
15262;DHT22;7733;51.554;13.590;2023-04-06T02:45:20;0.40;99.90
15262;DHT22;7733;51.554;13.590;2023-04-06T02:47:46;0.40;99.90
15262;DHT22;7733;51.554;13.590;2023-04-06T02:50:12;0.30;99.90
15262;DHT22;7733;51.554;13.590;2023-04-06T02:52:38;0.20;99.90
15262;DHT22;7733;51.554;13.590;2023-04-06T02:55:04;0.30;99.90
15262;DHT22;7733;51.554;13.590;2023-04-06T02:57:32;0.30;99.90
15262;DHT22;7733;51.554;13.590;2023-04-06T02:59:57;0.30;99.90
15262;DHT22;7733;51.554;13.590;2023-04-06T03:02:23;0.30;99.90
15262;DHT22;7733;51.554;13.590;2023-04-06T03:04:49;0.30;99.90
15262;DHT22;7733;51.554;13.590;2023-04-06T03:07:15;0.30;99.90
15262;DHT22;7733;51.554;13.590;2023-04-06T03:09:40;0.10;99.90
15262;DHT22;7733;51.554;13.590;2023-04-06T03:12:06;0.20;99.90
15262;DHT22;7733;51.554;13.590;2023-04-06T03:14:32;0.20;99.90
15262;DHT22;7733;51.554;13.590;2023-04-06T03:16:58;0.20;99.90
15262;DHT22;7733;51.554;13.590;2023-04-06T03:19:23;0.20;99.90
15262;DHT22;7733;51.554;13.590;2023-04-06T03:21:49;0.30;99.90
15262;DHT22;7733;51.554;13.590;2023-04-06T03:24:15;0.30;99.90
15262;DHT22;7733;51.554;13.590;2023-04-06T03:26:41;0.20;99.90
15262;DHT22;7733;51.554;13.590;2023-04-06T03:29:07;0.10;99.90
15262;DHT22;7733;51.554;13.590;2023-04-06T03:31:33;0.10;99.90
15262;DHT22;7733;51.554;13.590;2023-04-06T03:33:59;0.10;99.90
15262;DHT22;7733;51.554;13.590;2023-04-06T03:36:25;0.10;99.90
15262;DHT22;7733;51.554;13.590;2023-04-06T03:38:51;0.10;99.90
15262;DHT22;7733;51.554;13.590;2023-04-06T03:41:19;0.10;99.90
15262;DHT22;7733;51.554;13.590;2023-04-06T03:43:45;0.00;99.90
15262;DHT22;7733;51.554;13.590;2023-04-06T03:46:11;0.00;99.90
15262;DHT22;7733;51.554;13.590;2023-04-06T03:48:37;-0.10;99.90
15262;DHT22;7733;51.554;13.590;2023-04-06T03:51:03;-0.30;99.90
15262;DHT22;7733;51.554;13.590;2023-04-06T03:53:28;-0.10;99.90
15262;DHT22;7733;51.554;13.590;2023-04-06T03:55:54;0.00;99.90
15262;DHT22;7733;51.554;13.590;2023-04-06T03:58:20;0.00;99.90
15262;DHT22;7733;51.554;13.590;2023-04-06T04:00:46;0.00;99.90
15262;DHT22;7733;51.554;13.590;2023-04-06T04:03:12;-0.10;99.90
15262;DHT22;7733;51.554;13.590;2023-04-06T04:05:38;-0.20;99.90
15262;DHT22;7733;51.554;13.590;2023-04-06T04:08:04;-0.30;99.90
15262;DHT22;7733;51.554;13.590;2023-04-06T04:10:29;-0.20;99.90
15262;DHT22;7733;51.554;13.590;2023-04-06T04:12:55;-0.20;99.90
15262;DHT22;7733;51.554;13.590;2023-04-06T04:15:21;-0.10;99.90
15262;DHT22;7733;51.554;13.590;2023-04-06T04:17:47;-0.10;99.90
15262;DHT22;7733;51.554;13.590;2023-04-06T04:20:15;0.00;99.90
15262;DHT22;7733;51.554;13.590;2023-04-06T04:22:41;0.00;99.90
15262;DHT22;7733;51.554;13.590;2023-04-06T04:25:08;-0.10;99.90
15262;DHT22;7733;51.554;13.590;2023-04-06T04:27:34;-0.20;99.90
15262;DHT22;7733;51.554;13.590;2023-04-06T04:30:00;-0.30;99.90
15262;DHT22;7733;51.554;13.590;2023-04-06T04:32:26;-0.20;99.90
15262;DHT22;7733;51.554;13.590;2023-04-06T04:34:53;-0.10;99.90
15262;DHT22;7733;51.554;13.590;2023-04-06T04:37:19;-0.10;99.90
15262;DHT22;7733;51.554;13.590;2023-04-06T04:39:45;-0.10;99.90
15262;DHT22;7733;51.554;13.590;2023-04-06T04:42:11;-0.20;99.90
15262;DHT22;7733;51.554;13.590;2023-04-06T04:44:37;-0.20;99.90
15262;DHT22;7733;51.554;13.590;2023-04-06T04:47:03;-0.30;99.90
15262;DHT22;7733;51.554;13.590;2023-04-06T04:49:29;-0.30;99.90
15262;DHT22;7733;51.554;13.590;2023-04-06T04:51:55;-0.40;99.90
15262;DHT22;7733;51.554;13.590;2023-04-06T04:54:20;-0.40;99.90
15262;DHT22;7733;51.554;13.590;2023-04-06T04:56:46;-0.40;99.90
15262;DHT22;7733;51.554;13.590;2023-04-06T04:59:12;-0.40;99.90
15262;DHT22;7733;51.554;13.590;2023-04-06T05:01:38;-0.50;99.90
15262;DHT22;7733;51.554;13.590;2023-04-06T05:04:03;-0.50;99.90
15262;DHT22;7733;51.554;13.590;2023-04-06T05:06:29;-0.30;99.90
15262;DHT22;7733;51.554;13.590;2023-04-06T05:08:55;-0.20;99.90
15262;DHT22;7733;51.554;13.590;2023-04-06T05:11:21;-0.30;99.90
15262;DHT22;7733;51.554;13.590;2023-04-06T05:13:47;-0.30;99.90
15262;DHT22;7733;51.554;13.590;2023-04-06T05:16:13;-0.20;99.90
15262;DHT22;7733;51.554;13.590;2023-04-06T05:18:39;-0.20;99.90
15262;DHT22;7733;51.554;13.590;2023-04-06T05:21:04;-0.20;99.90
15262;DHT22;7733;51.554;13.590;2023-04-06T05:23:30;-0.20;99.90
15262;DHT22;7733;51.554;13.590;2023-04-06T05:25:56;-0.20;99.90
15262;DHT22;7733;51.554;13.590;2023-04-06T05:28:22;-0.30;99.90
15262;DHT22;7733;51.554;13.590;2023-04-06T05:30:48;-0.20;99.90
15262;DHT22;7733;51.554;13.590;2023-04-06T05:33:14;0.00;99.90
15262;DHT22;7733;51.554;13.590;2023-04-06T05:35:39;0.00;99.90
15262;DHT22;7733;51.554;13.590;2023-04-06T05:38:08;0.00;99.90
15262;DHT22;7733;51.554;13.590;2023-04-06T05:40:36;0.00;99.90
15262;DHT22;7733;51.554;13.590;2023-04-06T05:43:03;0.10;99.90
15262;DHT22;7733;51.554;13.590;2023-04-06T05:45:29;0.20;99.90
15262;DHT22;7733;51.554;13.590;2023-04-06T05:47:55;0.30;99.90
15262;DHT22;7733;51.554;13.590;2023-04-06T05:50:21;0.40;99.90
15262;DHT22;7733;51.554;13.590;2023-04-06T05:52:47;0.50;99.90
15262;DHT22;7733;51.554;13.590;2023-04-06T05:55:14;0.50;99.90
15262;DHT22;7733;51.554;13.590;2023-04-06T05:57:39;0.60;99.90
15262;DHT22;7733;51.554;13.590;2023-04-06T06:00:06;0.70;99.90
15262;DHT22;7733;51.554;13.590;2023-04-06T06:02:35;0.80;99.90
15262;DHT22;7733;51.554;13.590;2023-04-06T06:05:01;0.90;99.90
15262;DHT22;7733;51.554;13.590;2023-04-06T06:07:27;0.90;99.90
15262;DHT22;7733;51.554;13.590;2023-04-06T06:09:56;1.10;99.90
15262;DHT22;7733;51.554;13.590;2023-04-06T06:12:23;1.10;99.90
15262;DHT22;7733;51.554;13.590;2023-04-06T06:14:49;1.20;99.90
15262;DHT22;7733;51.554;13.590;2023-04-06T06:17:15;1.30;99.90
15262;DHT22;7733;51.554;13.590;2023-04-06T06:19:41;1.40;99.90
15262;DHT22;7733;51.554;13.590;2023-04-06T06:22:06;1.40;99.90
15262;DHT22;7733;51.554;13.590;2023-04-06T06:24:32;1.60;99.90
15262;DHT22;7733;51.554;13.590;2023-04-06T06:26:58;1.70;99.90
15262;DHT22;7733;51.554;13.590;2023-04-06T06:29:24;1.90;99.90
15262;DHT22;7733;51.554;13.590;2023-04-06T06:31:49;2.00;99.90
15262;DHT22;7733;51.554;13.590;2023-04-06T06:34:15;2.10;99.90
15262;DHT22;7733;51.554;13.590;2023-04-06T06:36:41;2.20;99.90
15262;DHT22;7733;51.554;13.590;2023-04-06T06:39:07;2.20;99.90
15262;DHT22;7733;51.554;13.590;2023-04-06T06:41:32;2.30;99.90
15262;DHT22;7733;51.554;13.590;2023-04-06T06:43:58;2.40;99.90
15262;DHT22;7733;51.554;13.590;2023-04-06T06:46:24;2.50;99.90
15262;DHT22;7733;51.554;13.590;2023-04-06T06:48:50;2.60;99.90
15262;DHT22;7733;51.554;13.590;2023-04-06T06:51:15;2.80;99.90
15262;DHT22;7733;51.554;13.590;2023-04-06T06:53:41;2.90;99.90
15262;DHT22;7733;51.554;13.590;2023-04-06T06:56:07;3.00;99.90
15262;DHT22;7733;51.554;13.590;2023-04-06T06:58:32;3.10;99.90
15262;DHT22;7733;51.554;13.590;2023-04-06T07:00:58;3.20;99.90
15262;DHT22;7733;51.554;13.590;2023-04-06T07:03:25;3.20;99.90
15262;DHT22;7733;51.554;13.590;2023-04-06T07:05:51;3.40;99.90
15262;DHT22;7733;51.554;13.590;2023-04-06T07:08:21;3.50;99.90
15262;DHT22;7733;51.554;13.590;2023-04-06T07:10:49;3.60;99.90
15262;DHT22;7733;51.554;13.590;2023-04-06T07:13:18;3.70;99.90
15262;DHT22;7733;51.554;13.590;2023-04-06T07:15:48;3.80;99.90
15262;DHT22;7733;51.554;13.590;2023-04-06T07:18:14;3.90;99.90
15262;DHT22;7733;51.554;13.590;2023-04-06T07:20:41;4.00;99.90
15262;DHT22;7733;51.554;13.590;2023-04-06T07:23:07;4.20;99.90
15262;DHT22;7733;51.554;13.590;2023-04-06T07:25:32;4.20;99.90
15262;DHT22;7733;51.554;13.590;2023-04-06T07:27:58;4.30;99.90
15262;DHT22;7733;51.554;13.590;2023-04-06T07:30:24;4.40;99.90
15262;DHT22;7733;51.554;13.590;2023-04-06T07:32:54;4.50;99.90
15262;DHT22;7733;51.554;13.590;2023-04-06T07:35:25;4.40;99.90
15262;DHT22;7733;51.554;13.590;2023-04-06T07:37:52;4.60;99.90
15262;DHT22;7733;51.554;13.590;2023-04-06T07:40:19;4.80;99.90
15262;DHT22;7733;51.554;13.590;2023-04-06T07:42:45;4.80;99.90
15262;DHT22;7733;51.554;13.590;2023-04-06T07:45:12;4.90;99.90
15262;DHT22;7733;51.554;13.590;2023-04-06T07:47:38;5.10;99.90
15262;DHT22;7733;51.554;13.590;2023-04-06T07:50:04;5.30;99.90
15262;DHT22;7733;51.554;13.590;2023-04-06T07:52:30;5.40;99.90
15262;DHT22;7733;51.554;13.590;2023-04-06T07:54:59;5.60;99.90
15262;DHT22;7733;51.554;13.590;2023-04-06T07:57:25;5.70;99.90
15262;DHT22;7733;51.554;13.590;2023-04-06T07:59:51;5.80;99.90
15262;DHT22;7733;51.554;13.590;2023-04-06T08:02:17;5.90;99.90
15262;DHT22;7733;51.554;13.590;2023-04-06T08:04:43;6.10;99.90
15262;DHT22;7733;51.554;13.590;2023-04-06T08:07:09;6.10;99.90
15262;DHT22;7733;51.554;13.590;2023-04-06T08:09:35;6.20;99.90
15262;DHT22;7733;51.554;13.590;2023-04-06T08:12:01;6.30;99.90
15262;DHT22;7733;51.554;13.590;2023-04-06T08:14:26;6.50;99.90
15262;DHT22;7733;51.554;13.590;2023-04-06T08:16:52;6.50;99.90
15262;DHT22;7733;51.554;13.590;2023-04-06T08:19:18;6.80;99.90
15262;DHT22;7733;51.554;13.590;2023-04-06T08:21:47;7.10;99.90
15262;DHT22;7733;51.554;13.590;2023-04-06T08:24:13;7.20;99.90
15262;DHT22;7733;51.554;13.590;2023-04-06T08:26:40;7.30;99.90
15262;DHT22;7733;51.554;13.590;2023-04-06T08:29:06;7.40;99.90
15262;DHT22;7733;51.554;13.590;2023-04-06T08:31:35;7.50;99.90
15262;DHT22;7733;51.554;13.590;2023-04-06T08:34:05;7.70;99.90
15262;DHT22;7733;51.554;13.590;2023-04-06T08:36:31;7.90;99.60
15262;DHT22;7733;51.554;13.590;2023-04-06T08:38:57;8.00;99.50
15262;DHT22;7733;51.554;13.590;2023-04-06T08:41:23;8.20;98.20
15262;DHT22;7733;51.554;13.590;2023-04-06T08:43:52;8.40;97.20
15262;DHT22;7733;51.554;13.590;2023-04-06T08:46:28;8.40;95.50
15262;DHT22;7733;51.554;13.590;2023-04-06T08:49:00;8.60;94.90
15262;DHT22;7733;51.554;13.590;2023-04-06T08:51:28;8.70;94.20
15262;DHT22;7733;51.554;13.590;2023-04-06T08:53:56;8.90;94.50
15262;DHT22;7733;51.554;13.590;2023-04-06T08:56:24;9.00;93.60
15262;DHT22;7733;51.554;13.590;2023-04-06T08:58:52;9.20;92.90
15262;DHT22;7733;51.554;13.590;2023-04-06T09:01:26;9.40;92.70
15262;DHT22;7733;51.554;13.590;2023-04-06T09:03:57;9.40;92.10
15262;DHT22;7733;51.554;13.590;2023-04-06T09:06:26;9.50;91.30
15262;DHT22;7733;51.554;13.590;2023-04-06T09:08:56;9.60;91.70
15262;DHT22;7733;51.554;13.590;2023-04-06T09:11:23;10.00;92.00
15262;DHT22;7733;51.554;13.590;2023-04-06T09:13:56;10.20;90.70
15262;DHT22;7733;51.554;13.590;2023-04-06T09:16:23;10.10;90.20
15262;DHT22;7733;51.554;13.590;2023-04-06T09:18:50;10.30;88.50
15262;DHT22;7733;51.554;13.590;2023-04-06T09:21:18;10.20;88.80
15262;DHT22;7733;51.554;13.590;2023-04-06T09:23:44;10.60;88.80
15262;DHT22;7733;51.554;13.590;2023-04-06T09:26:15;10.90;86.60
15262;DHT22;7733;51.554;13.590;2023-04-06T09:28:55;10.70;87.30
15262;DHT22;7733;51.554;13.590;2023-04-06T09:31:23;11.00;85.30
15262;DHT22;7733;51.554;13.590;2023-04-06T09:33:51;11.00;83.10
15262;DHT22;7733;51.554;13.590;2023-04-06T09:36:18;11.20;84.00
15262;DHT22;7733;51.554;13.590;2023-04-06T09:39:01;11.00;81.80
15262;DHT22;7733;51.554;13.590;2023-04-06T09:41:30;11.00;81.50
15262;DHT22;7733;51.554;13.590;2023-04-06T09:49:08;9.70;80.90
15262;DHT22;7733;51.554;13.590;2023-04-06T09:51:40;9.30;81.70
15262;DHT22;7733;51.554;13.590;2023-04-06T09:54:07;9.50;82.20
15262;DHT22;7733;51.554;13.590;2023-04-06T09:57:37;9.80;81.80
15262;DHT22;7733;51.554;13.590;2023-04-06T10:00:00;10.10;82.50
15262;DHT22;7733;51.554;13.590;2023-04-06T10:05:37;11.20;78.70
15262;DHT22;7733;51.554;13.590;2023-04-06T10:08:13;11.40;76.80
15262;DHT22;7733;51.554;13.590;2023-04-06T10:10:39;11.60;76.10
15262;DHT22;7733;51.554;13.590;2023-04-06T10:13:05;11.20;74.50
15262;DHT22;7733;51.554;13.590;2023-04-06T10:15:33;11.00;73.30
15262;DHT22;7733;51.554;13.590;2023-04-06T10:18:00;11.10;73.00
15262;DHT22;7733;51.554;13.590;2023-04-06T10:25:52;11.00;73.40
15262;DHT22;7733;51.554;13.590;2023-04-06T10:28:23;10.90;72.40
15262;DHT22;7733;51.554;13.590;2023-04-06T10:30:59;10.90;73.80
15262;DHT22;7733;51.554;13.590;2023-04-06T10:33:27;11.00;73.30
15262;DHT22;7733;51.554;13.590;2023-04-06T10:35:53;11.50;73.20
15262;DHT22;7733;51.554;13.590;2023-04-06T10:38:21;12.00;72.80
15262;DHT22;7733;51.554;13.590;2023-04-06T10:40:48;12.10;70.10
15262;DHT22;7733;51.554;13.590;2023-04-06T10:43:23;11.70;67.30
15262;DHT22;7733;51.554;13.590;2023-04-06T10:45:56;11.80;69.90
15262;DHT22;7733;51.554;13.590;2023-04-06T10:48:25;12.40;69.20
15262;DHT22;7733;51.554;13.590;2023-04-06T10:51:01;12.50;67.00
15262;DHT22;7733;51.554;13.590;2023-04-06T10:53:27;12.60;65.50
15262;DHT22;7733;51.554;13.590;2023-04-06T10:55:57;12.90;65.00
15262;DHT22;7733;51.554;13.590;2023-04-06T10:58:26;13.00;64.70
15262;DHT22;7733;51.554;13.590;2023-04-06T11:00:54;12.90;64.70
15262;DHT22;7733;51.554;13.590;2023-04-06T11:03:23;12.90;63.90
15262;DHT22;7733;51.554;13.590;2023-04-06T11:05:49;13.30;63.10
15262;DHT22;7733;51.554;13.590;2023-04-06T11:08:27;13.20;63.50
15262;DHT22;7733;51.554;13.590;2023-04-06T11:11:12;13.30;62.70
15262;DHT22;7733;51.554;13.590;2023-04-06T11:13:58;13.40;62.00
15262;DHT22;7733;51.554;13.590;2023-04-06T11:16:32;12.90;59.10
15262;DHT22;7733;51.554;13.590;2023-04-06T11:19:03;12.80;61.00
15262;DHT22;7733;51.554;13.590;2023-04-06T11:21:34;12.70;62.80
15262;DHT22;7733;51.554;13.590;2023-04-06T11:24:21;12.70;61.70
15262;DHT22;7733;51.554;13.590;2023-04-06T11:26:58;12.70;61.40
15262;DHT22;7733;51.554;13.590;2023-04-06T11:29:27;13.00;61.80
15262;DHT22;7733;51.554;13.590;2023-04-06T11:32:00;12.90;61.10
15262;DHT22;7733;51.554;13.590;2023-04-06T11:34:29;12.30;61.10
15262;DHT22;7733;51.554;13.590;2023-04-06T11:37:03;12.40;63.60
15262;DHT22;7733;51.554;13.590;2023-04-06T11:39:36;12.30;62.80
15262;DHT22;7733;51.554;13.590;2023-04-06T11:42:06;12.30;63.00
15262;DHT22;7733;51.554;13.590;2023-04-06T11:47:04;12.60;61.00
15262;DHT22;7733;51.554;13.590;2023-04-06T11:49:32;13.00;61.00
15262;DHT22;7733;51.554;13.590;2023-04-06T11:52:00;13.00;61.00
15262;DHT22;7733;51.554;13.590;2023-04-06T11:54:36;12.70;60.80
15262;DHT22;7733;51.554;13.590;2023-04-06T11:57:07;12.70;61.60
15262;DHT22;7733;51.554;13.590;2023-04-06T11:59:34;12.50;60.70
15262;DHT22;7733;51.554;13.590;2023-04-06T12:02:03;12.00;62.60
15262;DHT22;7733;51.554;13.590;2023-04-06T12:04:31;11.90;64.20
15262;DHT22;7733;51.554;13.590;2023-04-06T12:06:57;12.40;62.80
15262;DHT22;7733;51.554;13.590;2023-04-06T12:09:24;12.50;61.40
15262;DHT22;7733;51.554;13.590;2023-04-06T12:11:50;12.60;61.50
15262;DHT22;7733;51.554;13.590;2023-04-06T12:14:16;12.70;60.40
15262;DHT22;7733;51.554;13.590;2023-04-06T12:16:42;13.10;60.00
15262;DHT22;7733;51.554;13.590;2023-04-06T12:19:07;13.10;59.80
15262;DHT22;7733;51.554;13.590;2023-04-06T12:21:34;13.60;61.50
15262;DHT22;7733;51.554;13.590;2023-04-06T12:24:03;13.90;60.50
15262;DHT22;7733;51.554;13.590;2023-04-06T12:26:30;14.00;59.80
15262;DHT22;7733;51.554;13.590;2023-04-06T12:28:57;14.00;60.20
15262;DHT22;7733;51.554;13.590;2023-04-06T12:31:30;14.20;60.10
15262;DHT22;7733;51.554;13.590;2023-04-06T12:33:56;14.10;57.80
15262;DHT22;7733;51.554;13.590;2023-04-06T12:36:21;13.70;58.20
15262;DHT22;7733;51.554;13.590;2023-04-06T12:38:48;14.00;58.90
15262;DHT22;7733;51.554;13.590;2023-04-06T12:41:15;14.20;57.50
15262;DHT22;7733;51.554;13.590;2023-04-06T12:43:41;14.50;56.80
15262;DHT22;7733;51.554;13.590;2023-04-06T12:46:08;13.30;58.40
15262;DHT22;7733;51.554;13.590;2023-04-06T12:48:34;13.70;57.80
15262;DHT22;7733;51.554;13.590;2023-04-06T12:51:05;13.80;58.30
15262;DHT22;7733;51.554;13.590;2023-04-06T12:53:31;14.30;57.50
15262;DHT22;7733;51.554;13.590;2023-04-06T12:55:58;14.10;57.90
15262;DHT22;7733;51.554;13.590;2023-04-06T12:58:26;14.20;59.00
15262;DHT22;7733;51.554;13.590;2023-04-06T13:00:52;13.90;57.70
15262;DHT22;7733;51.554;13.590;2023-04-06T13:03:19;14.20;56.50
15262;DHT22;7733;51.554;13.590;2023-04-06T13:05:52;12.90;57.70
15262;DHT22;7733;51.554;13.590;2023-04-06T13:08:19;12.70;58.70
15262;DHT22;7733;51.554;13.590;2023-04-06T13:10:51;12.60;59.60
15262;DHT22;7733;51.554;13.590;2023-04-06T13:13:24;13.10;59.00
15262;DHT22;7733;51.554;13.590;2023-04-06T13:15:53;13.30;59.50
15262;DHT22;7733;51.554;13.590;2023-04-06T13:18:21;12.80;58.20
15262;DHT22;7733;51.554;13.590;2023-04-06T13:20:48;12.70;59.20
15262;DHT22;7733;51.554;13.590;2023-04-06T13:23:14;12.90;59.60
15262;DHT22;7733;51.554;13.590;2023-04-06T13:25:40;12.50;59.70
15262;DHT22;7733;51.554;13.590;2023-04-06T13:28:06;11.70;60.90
15262;DHT22;7733;51.554;13.590;2023-04-06T13:30:32;12.20;61.90
15262;DHT22;7733;51.554;13.590;2023-04-06T13:32:58;12.50;60.70
15262;DHT22;7733;51.554;13.590;2023-04-06T13:35:24;13.00;60.70
15262;DHT22;7733;51.554;13.590;2023-04-06T13:37:50;12.90;58.80
15262;DHT22;7733;51.554;13.590;2023-04-06T13:40:18;13.20;59.20
15262;DHT22;7733;51.554;13.590;2023-04-06T13:42:44;13.20;58.30
15262;DHT22;7733;51.554;13.590;2023-04-06T13:45:11;13.00;58.70
15262;DHT22;7733;51.554;13.590;2023-04-06T13:47:37;13.10;59.90
15262;DHT22;7733;51.554;13.590;2023-04-06T13:50:03;13.60;59.50
15262;DHT22;7733;51.554;13.590;2023-04-06T13:52:30;13.70;58.60
15262;DHT22;7733;51.554;13.590;2023-04-06T13:54:55;13.50;58.60
15262;DHT22;7733;51.554;13.590;2023-04-06T13:57:21;13.20;59.20
15262;DHT22;7733;51.554;13.590;2023-04-06T13:59:47;13.30;59.20
15262;DHT22;7733;51.554;13.590;2023-04-06T14:02:15;13.60;59.20
15262;DHT22;7733;51.554;13.590;2023-04-06T14:04:40;13.60;59.00
15262;DHT22;7733;51.554;13.590;2023-04-06T14:07:06;13.90;59.40
15262;DHT22;7733;51.554;13.590;2023-04-06T14:09:33;13.70;58.90
15262;DHT22;7733;51.554;13.590;2023-04-06T14:11:59;14.00;59.40
15262;DHT22;7733;51.554;13.590;2023-04-06T14:14:25;14.00;58.80
15262;DHT22;7733;51.554;13.590;2023-04-06T14:16:51;14.00;58.30
15262;DHT22;7733;51.554;13.590;2023-04-06T14:19:17;14.00;57.60
15262;DHT22;7733;51.554;13.590;2023-04-06T14:21:44;14.00;58.40
15262;DHT22;7733;51.554;13.590;2023-04-06T14:24:11;14.10;57.80
15262;DHT22;7733;51.554;13.590;2023-04-06T14:26:38;14.00;57.90
15262;DHT22;7733;51.554;13.590;2023-04-06T14:29:07;14.60;57.40
15262;DHT22;7733;51.554;13.590;2023-04-06T14:31:34;14.40;56.30
15262;DHT22;7733;51.554;13.590;2023-04-06T14:34:02;14.50;56.50
15262;DHT22;7733;51.554;13.590;2023-04-06T14:36:29;14.30;57.00
15262;DHT22;7733;51.554;13.590;2023-04-06T14:39:02;14.10;56.70
15262;DHT22;7733;51.554;13.590;2023-04-06T14:41:30;13.90;57.30
15262;DHT22;7733;51.554;13.590;2023-04-06T14:43:56;14.20;56.40
15262;DHT22;7733;51.554;13.590;2023-04-06T14:46:22;14.50;57.00
15262;DHT22;7733;51.554;13.590;2023-04-06T14:48:48;14.50;56.70
15262;DHT22;7733;51.554;13.590;2023-04-06T14:51:14;14.20;56.60
15262;DHT22;7733;51.554;13.590;2023-04-06T14:53:40;14.10;56.50
15262;DHT22;7733;51.554;13.590;2023-04-06T14:56:06;14.20;57.00
15262;DHT22;7733;51.554;13.590;2023-04-06T14:58:32;14.30;56.40
15262;DHT22;7733;51.554;13.590;2023-04-06T15:00:59;13.80;56.10
15262;DHT22;7733;51.554;13.590;2023-04-06T15:03:26;13.70;56.80
15262;DHT22;7733;51.554;13.590;2023-04-06T15:05:54;14.00;56.80
15262;DHT22;7733;51.554;13.590;2023-04-06T15:08:24;13.60;56.70
15262;DHT22;7733;51.554;13.590;2023-04-06T15:10:50;13.50;56.90
15262;DHT22;7733;51.554;13.590;2023-04-06T15:13:17;13.20;57.50
15262;DHT22;7733;51.554;13.590;2023-04-06T15:15:44;13.10;57.40
15262;DHT22;7733;51.554;13.590;2023-04-06T15:18:10;13.40;57.40
15262;DHT22;7733;51.554;13.590;2023-04-06T15:20:37;13.80;56.50
15262;DHT22;7733;51.554;13.590;2023-04-06T15:23:03;14.10;57.00
15262;DHT22;7733;51.554;13.590;2023-04-06T15:25:30;13.80;56.00
15262;DHT22;7733;51.554;13.590;2023-04-06T15:27:56;13.80;56.00
15262;DHT22;7733;51.554;13.590;2023-04-06T15:30:22;13.90;56.60
15262;DHT22;7733;51.554;13.590;2023-04-06T15:32:54;13.80;56.50
15262;DHT22;7733;51.554;13.590;2023-04-06T15:35:23;13.80;56.90
15262;DHT22;7733;51.554;13.590;2023-04-06T15:37:51;13.80;57.30
15262;DHT22;7733;51.554;13.590;2023-04-06T15:40:17;13.20;57.70
15262;DHT22;7733;51.554;13.590;2023-04-06T15:42:43;13.10;58.40
15262;DHT22;7733;51.554;13.590;2023-04-06T15:45:12;13.00;58.40
15262;DHT22;7733;51.554;13.590;2023-04-06T15:47:42;13.30;58.20
15262;DHT22;7733;51.554;13.590;2023-04-06T15:50:08;13.40;58.60
15262;DHT22;7733;51.554;13.590;2023-04-06T15:52:35;13.50;58.30
15262;DHT22;7733;51.554;13.590;2023-04-06T15:55:05;13.50;57.30